sensor_id;sensor_type;location;lat;lon;timestamp;P1;durP1;ratioP1;P2;durP2;ratioP2
74920;SDS011;63483;47.384;8.860;2023-05-10T00:00:11;0.90;;;0.50;;
74920;SDS011;63483;47.384;8.860;2023-05-10T00:02:37;0.80;;;0.35;;
74920;SDS011;63483;47.384;8.860;2023-05-10T00:05:02;1.20;;;0.50;;
74920;SDS011;63483;47.384;8.860;2023-05-10T00:07:28;1.52;;;0.50;;
74920;SDS011;63483;47.384;8.860;2023-05-10T00:09:53;1.40;;;0.70;;
74920;SDS011;63483;47.384;8.860;2023-05-10T00:12:19;1.43;;;0.60;;
74920;SDS011;63483;47.384;8.860;2023-05-10T00:14:44;0.87;;;0.37;;
74920;SDS011;63483;47.384;8.860;2023-05-10T00:17:10;1.88;;;0.63;;
74920;SDS011;63483;47.384;8.860;2023-05-10T00:19:35;1.43;;;0.73;;
74920;SDS011;63483;47.384;8.860;2023-05-10T00:22:00;0.90;;;0.73;;
74920;SDS011;63483;47.384;8.860;2023-05-10T00:24:26;1.08;;;0.40;;
74920;SDS011;63483;47.384;8.860;2023-05-10T00:26:51;1.23;;;0.20;;
74920;SDS011;63483;47.384;8.860;2023-05-10T00:29:17;2.10;;;0.40;;
74920;SDS011;63483;47.384;8.860;2023-05-10T00:31:42;0.83;;;0.47;;
74920;SDS011;63483;47.384;8.860;2023-05-10T00:34:07;1.83;;;0.50;;
74920;SDS011;63483;47.384;8.860;2023-05-10T00:36:33;1.20;;;0.57;;
74920;SDS011;63483;47.384;8.860;2023-05-10T00:38:58;0.90;;;0.57;;
74920;SDS011;63483;47.384;8.860;2023-05-10T00:41:23;0.80;;;0.47;;
74920;SDS011;63483;47.384;8.860;2023-05-10T00:43:49;0.90;;;0.60;;
74920;SDS011;63483;47.384;8.860;2023-05-10T00:46:14;1.00;;;0.47;;
74920;SDS011;63483;47.384;8.860;2023-05-10T00:48:40;1.35;;;1.10;;
74920;SDS011;63483;47.384;8.860;2023-05-10T00:51:07;1.97;;;0.93;;
74920;SDS011;63483;47.384;8.860;2023-05-10T00:53:32;1.45;;;0.98;;
74920;SDS011;63483;47.384;8.860;2023-05-10T00:55:59;1.10;;;0.60;;
74920;SDS011;63483;47.384;8.860;2023-05-10T00:58:25;1.40;;;0.50;;
74920;SDS011;63483;47.384;8.860;2023-05-10T01:00:53;1.05;;;0.50;;
74920;SDS011;63483;47.384;8.860;2023-05-10T01:03:19;1.47;;;0.60;;
74920;SDS011;63483;47.384;8.860;2023-05-10T01:05:45;0.80;;;0.43;;
74920;SDS011;63483;47.384;8.860;2023-05-10T01:08:11;1.33;;;0.70;;
74920;SDS011;63483;47.384;8.860;2023-05-10T01:10:36;1.42;;;0.70;;
74920;SDS011;63483;47.384;8.860;2023-05-10T01:13:02;0.70;;;0.47;;
74920;SDS011;63483;47.384;8.860;2023-05-10T01:15:28;1.53;;;0.43;;
74920;SDS011;63483;47.384;8.860;2023-05-10T01:17:54;0.90;;;0.40;;
74920;SDS011;63483;47.384;8.860;2023-05-10T01:20:21;1.08;;;0.43;;
74920;SDS011;63483;47.384;8.860;2023-05-10T01:34:20;1.23;;;0.50;;
74920;SDS011;63483;47.384;8.860;2023-05-10T01:36:54;1.08;;;0.60;;
74920;SDS011;63483;47.384;8.860;2023-05-10T01:39:35;1.00;;;0.53;;
74920;SDS011;63483;47.384;8.860;2023-05-10T01:42:16;1.23;;;0.32;;
74920;SDS011;63483;47.384;8.860;2023-05-10T01:44:49;1.25;;;0.68;;
74920;SDS011;63483;47.384;8.860;2023-05-10T01:47:37;1.38;;;0.98;;
74920;SDS011;63483;47.384;8.860;2023-05-10T01:50:10;1.30;;;0.30;;
74920;SDS011;63483;47.384;8.860;2023-05-10T01:52:42;1.53;;;0.40;;
74920;SDS011;63483;47.384;8.860;2023-05-10T01:55:14;0.73;;;0.40;;
74920;SDS011;63483;47.384;8.860;2023-05-10T01:57:43;1.65;;;0.95;;
74920;SDS011;63483;47.384;8.860;2023-05-10T02:00:11;0.98;;;0.50;;
74920;SDS011;63483;47.384;8.860;2023-05-10T02:02:45;1.25;;;0.77;;
74920;SDS011;63483;47.384;8.860;2023-05-10T02:05:13;1.27;;;0.47;;
74920;SDS011;63483;47.384;8.860;2023-05-10T02:07:39;1.17;;;0.68;;
74920;SDS011;63483;47.384;8.860;2023-05-10T02:10:07;1.20;;;0.75;;
74920;SDS011;63483;47.384;8.860;2023-05-10T02:12:35;1.40;;;0.50;;
74920;SDS011;63483;47.384;8.860;2023-05-10T02:15:02;2.95;;;1.05;;
74920;SDS011;63483;47.384;8.860;2023-05-10T02:17:30;2.37;;;1.07;;
74920;SDS011;63483;47.384;8.860;2023-05-10T02:19:57;0.90;;;0.50;;
74920;SDS011;63483;47.384;8.860;2023-05-10T02:22:25;1.38;;;0.43;;
74920;SDS011;63483;47.384;8.860;2023-05-10T02:24:51;1.42;;;0.50;;
74920;SDS011;63483;47.384;8.860;2023-05-10T02:27:18;1.30;;;0.60;;
74920;SDS011;63483;47.384;8.860;2023-05-10T02:29:45;2.90;;;0.50;;
74920;SDS011;63483;47.384;8.860;2023-05-10T02:32:11;1.55;;;0.82;;
74920;SDS011;63483;47.384;8.860;2023-05-10T02:34:38;1.08;;;0.60;;
74920;SDS011;63483;47.384;8.860;2023-05-10T02:37:04;1.95;;;0.85;;
74920;SDS011;63483;47.384;8.860;2023-05-10T02:39:31;1.48;;;1.13;;
74920;SDS011;63483;47.384;8.860;2023-05-10T02:41:57;1.00;;;0.60;;
74920;SDS011;63483;47.384;8.860;2023-05-10T02:44:23;2.03;;;1.02;;
74920;SDS011;63483;47.384;8.860;2023-05-10T02:46:52;2.28;;;1.23;;
74920;SDS011;63483;47.384;8.860;2023-05-10T02:49:20;1.30;;;0.60;;
74920;SDS011;63483;47.384;8.860;2023-05-10T02:51:50;0.90;;;0.70;;
74920;SDS011;63483;47.384;8.860;2023-05-10T02:54:20;1.65;;;0.30;;
74920;SDS011;63483;47.384;8.860;2023-05-10T02:56:53;2.25;;;0.50;;
74920;SDS011;63483;47.384;8.860;2023-05-10T02:59:22;0.80;;;0.30;;
74920;SDS011;63483;47.384;8.860;2023-05-10T03:01:47;0.90;;;0.32;;
74920;SDS011;63483;47.384;8.860;2023-05-10T03:04:12;1.00;;;0.30;;
74920;SDS011;63483;47.384;8.860;2023-05-10T03:06:38;1.77;;;0.40;;
74920;SDS011;63483;47.384;8.860;2023-05-10T03:09:04;0.85;;;0.40;;
74920;SDS011;63483;47.384;8.860;2023-05-10T03:11:47;1.50;;;0.52;;
74920;SDS011;63483;47.384;8.860;2023-05-10T03:19:48;2.92;;;1.05;;
74920;SDS011;63483;47.384;8.860;2023-05-10T03:22:40;2.15;;;0.40;;
74920;SDS011;63483;47.384;8.860;2023-05-10T03:25:08;1.55;;;0.55;;
74920;SDS011;63483;47.384;8.860;2023-05-10T03:27:36;1.50;;;0.60;;
74920;SDS011;63483;47.384;8.860;2023-05-10T03:30:05;0.90;;;0.60;;
74920;SDS011;63483;47.384;8.860;2023-05-10T03:32:33;1.15;;;0.57;;
74920;SDS011;63483;47.384;8.860;2023-05-10T03:34:59;1.80;;;0.50;;
74920;SDS011;63483;47.384;8.860;2023-05-10T03:37:25;0.90;;;0.50;;
74920;SDS011;63483;47.384;8.860;2023-05-10T03:39:50;0.80;;;0.60;;
74920;SDS011;63483;47.384;8.860;2023-05-10T03:42:16;1.92;;;0.50;;
74920;SDS011;63483;47.384;8.860;2023-05-10T03:44:42;1.00;;;0.83;;
74920;SDS011;63483;47.384;8.860;2023-05-10T03:47:08;1.17;;;0.40;;
74920;SDS011;63483;47.384;8.860;2023-05-10T03:49:33;1.00;;;0.60;;
74920;SDS011;63483;47.384;8.860;2023-05-10T03:51:58;1.57;;;0.73;;
74920;SDS011;63483;47.384;8.860;2023-05-10T03:54:24;1.87;;;0.50;;
74920;SDS011;63483;47.384;8.860;2023-05-10T03:56:49;0.90;;;0.43;;
74920;SDS011;63483;47.384;8.860;2023-05-10T03:59:14;0.90;;;0.40;;
74920;SDS011;63483;47.384;8.860;2023-05-10T04:01:40;1.00;;;0.50;;
74920;SDS011;63483;47.384;8.860;2023-05-10T04:04:05;1.17;;;0.83;;
74920;SDS011;63483;47.384;8.860;2023-05-10T04:06:31;2.57;;;0.90;;
74920;SDS011;63483;47.384;8.860;2023-05-10T04:08:56;1.20;;;1.02;;
74920;SDS011;63483;47.384;8.860;2023-05-10T04:11:24;2.70;;;0.70;;
74920;SDS011;63483;47.384;8.860;2023-05-10T04:13:50;1.92;;;1.05;;
74920;SDS011;63483;47.384;8.860;2023-05-10T04:16:16;1.23;;;0.90;;
74920;SDS011;63483;47.384;8.860;2023-05-10T04:18:41;2.37;;;1.00;;
74920;SDS011;63483;47.384;8.860;2023-05-10T04:21:12;1.77;;;0.80;;
74920;SDS011;63483;47.384;8.860;2023-05-10T04:23:38;1.38;;;0.50;;
74920;SDS011;63483;47.384;8.860;2023-05-10T04:26:04;2.80;;;0.57;;
74920;SDS011;63483;47.384;8.860;2023-05-10T04:28:29;2.07;;;0.70;;
74920;SDS011;63483;47.384;8.860;2023-05-10T04:31:02;1.27;;;0.77;;
74920;SDS011;63483;47.384;8.860;2023-05-10T04:33:27;1.58;;;0.57;;
74920;SDS011;63483;47.384;8.860;2023-05-10T04:35:53;1.13;;;0.50;;
74920;SDS011;63483;47.384;8.860;2023-05-10T04:38:18;1.67;;;0.50;;
74920;SDS011;63483;47.384;8.860;2023-05-10T04:40:43;1.00;;;0.53;;
74920;SDS011;63483;47.384;8.860;2023-05-10T04:43:09;1.33;;;0.37;;
74920;SDS011;63483;47.384;8.860;2023-05-10T04:45:34;2.58;;;0.70;;
74920;SDS011;63483;47.384;8.860;2023-05-10T04:47:59;2.80;;;0.70;;
74920;SDS011;63483;47.384;8.860;2023-05-10T04:50:24;1.47;;;0.50;;
74920;SDS011;63483;47.384;8.860;2023-05-10T04:52:50;1.97;;;1.07;;
74920;SDS011;63483;47.384;8.860;2023-05-10T04:55:15;1.40;;;0.77;;
74920;SDS011;63483;47.384;8.860;2023-05-10T04:57:41;1.77;;;0.80;;
74920;SDS011;63483;47.384;8.860;2023-05-10T05:00:06;1.57;;;0.40;;
74920;SDS011;63483;47.384;8.860;2023-05-10T05:02:32;1.20;;;0.82;;
74920;SDS011;63483;47.384;8.860;2023-05-10T05:04:57;2.23;;;0.40;;
74920;SDS011;63483;47.384;8.860;2023-05-10T05:07:22;1.40;;;1.10;;
74920;SDS011;63483;47.384;8.860;2023-05-10T05:09:48;1.83;;;0.97;;
74920;SDS011;63483;47.384;8.860;2023-05-10T05:12:13;1.58;;;0.80;;
74920;SDS011;63483;47.384;8.860;2023-05-10T05:14:39;1.10;;;0.80;;
74920;SDS011;63483;47.384;8.860;2023-05-10T05:17:05;1.38;;;0.75;;
74920;SDS011;63483;47.384;8.860;2023-05-10T05:19:30;1.03;;;0.40;;
74920;SDS011;63483;47.384;8.860;2023-05-10T05:21:56;1.10;;;0.45;;
74920;SDS011;63483;47.384;8.860;2023-05-10T05:24:21;0.80;;;0.30;;
74920;SDS011;63483;47.384;8.860;2023-05-10T05:26:47;1.10;;;0.67;;
74920;SDS011;63483;47.384;8.860;2023-05-10T05:29:12;1.20;;;0.40;;
74920;SDS011;63483;47.384;8.860;2023-05-10T05:31:37;1.60;;;0.87;;
74920;SDS011;63483;47.384;8.860;2023-05-10T05:34:03;2.37;;;0.57;;
74920;SDS011;63483;47.384;8.860;2023-05-10T05:36:28;1.20;;;0.50;;
74920;SDS011;63483;47.384;8.860;2023-05-10T05:38:53;0.93;;;0.43;;
74920;SDS011;63483;47.384;8.860;2023-05-10T05:41:19;1.33;;;0.40;;
74920;SDS011;63483;47.384;8.860;2023-05-10T05:43:44;1.20;;;0.33;;
74920;SDS011;63483;47.384;8.860;2023-05-10T05:46:10;1.73;;;0.40;;
74920;SDS011;63483;47.384;8.860;2023-05-10T05:48:35;1.02;;;0.50;;
74920;SDS011;63483;47.384;8.860;2023-05-10T05:51:00;1.53;;;0.50;;
74920;SDS011;63483;47.384;8.860;2023-05-10T05:53:26;2.53;;;0.33;;
74920;SDS011;63483;47.384;8.860;2023-05-10T05:55:55;1.57;;;0.70;;
74920;SDS011;63483;47.384;8.860;2023-05-10T05:58:22;1.15;;;0.82;;
74920;SDS011;63483;47.384;8.860;2023-05-10T06:00:47;1.02;;;0.60;;
74920;SDS011;63483;47.384;8.860;2023-05-10T06:03:13;1.57;;;0.67;;
74920;SDS011;63483;47.384;8.860;2023-05-10T06:05:38;2.00;;;0.60;;
74920;SDS011;63483;47.384;8.860;2023-05-10T06:08:04;1.43;;;0.43;;
74920;SDS011;63483;47.384;8.860;2023-05-10T06:10:29;1.07;;;0.47;;
74920;SDS011;63483;47.384;8.860;2023-05-10T06:12:55;3.92;;;0.82;;
74920;SDS011;63483;47.384;8.860;2023-05-10T06:15:21;1.33;;;0.50;;
74920;SDS011;63483;47.384;8.860;2023-05-10T06:17:46;1.13;;;0.50;;
74920;SDS011;63483;47.384;8.860;2023-05-10T06:20:14;1.73;;;0.80;;
74920;SDS011;63483;47.384;8.860;2023-05-10T06:22:40;1.40;;;0.87;;
74920;SDS011;63483;47.384;8.860;2023-05-10T06:25:05;1.30;;;0.65;;
74920;SDS011;63483;47.384;8.860;2023-05-10T06:27:31;1.10;;;0.52;;
74920;SDS011;63483;47.384;8.860;2023-05-10T06:29:57;1.53;;;0.40;;
74920;SDS011;63483;47.384;8.860;2023-05-10T06:32:22;1.57;;;0.50;;
74920;SDS011;63483;47.384;8.860;2023-05-10T06:34:47;1.03;;;0.40;;
74920;SDS011;63483;47.384;8.860;2023-05-10T06:37:13;0.90;;;0.60;;
74920;SDS011;63483;47.384;8.860;2023-05-10T06:39:38;1.47;;;0.67;;
74920;SDS011;63483;47.384;8.860;2023-05-10T06:42:03;1.13;;;0.80;;
74920;SDS011;63483;47.384;8.860;2023-05-10T06:44:29;1.83;;;0.88;;
74920;SDS011;63483;47.384;8.860;2023-05-10T06:46:55;1.60;;;0.93;;
74920;SDS011;63483;47.384;8.860;2023-05-10T06:49:20;2.00;;;0.98;;
74920;SDS011;63483;47.384;8.860;2023-05-10T06:51:46;1.80;;;0.43;;
74920;SDS011;63483;47.384;8.860;2023-05-10T06:54:11;6.03;;;0.63;;
74920;SDS011;63483;47.384;8.860;2023-05-10T06:56:37;1.87;;;0.63;;
74920;SDS011;63483;47.384;8.860;2023-05-10T06:59:02;1.48;;;0.60;;
74920;SDS011;63483;47.384;8.860;2023-05-10T07:01:28;0.80;;;0.30;;
74920;SDS011;63483;47.384;8.860;2023-05-10T07:03:53;1.37;;;0.77;;
74920;SDS011;63483;47.384;8.860;2023-05-10T07:06:18;1.57;;;1.10;;
74920;SDS011;63483;47.384;8.860;2023-05-10T07:08:44;2.05;;;1.10;;
74920;SDS011;63483;47.384;8.860;2023-05-10T07:11:09;2.10;;;0.70;;
74920;SDS011;63483;47.384;8.860;2023-05-10T07:13:37;1.00;;;0.60;;
74920;SDS011;63483;47.384;8.860;2023-05-10T07:16:06;1.40;;;0.77;;
74920;SDS011;63483;47.384;8.860;2023-05-10T07:18:32;1.30;;;0.60;;
74920;SDS011;63483;47.384;8.860;2023-05-10T07:20:58;1.48;;;0.77;;
74920;SDS011;63483;47.384;8.860;2023-05-10T07:23:23;1.50;;;0.47;;
74920;SDS011;63483;47.384;8.860;2023-05-10T07:25:49;2.13;;;0.60;;
74920;SDS011;63483;47.384;8.860;2023-05-10T07:28:17;1.50;;;0.90;;
74920;SDS011;63483;47.384;8.860;2023-05-10T07:30:43;1.27;;;0.75;;
74920;SDS011;63483;47.384;8.860;2023-05-10T07:33:09;2.00;;;1.07;;
74920;SDS011;63483;47.384;8.860;2023-05-10T07:35:35;1.60;;;0.60;;
74920;SDS011;63483;47.384;8.860;2023-05-10T07:38:01;1.67;;;0.70;;
74920;SDS011;63483;47.384;8.860;2023-05-10T07:40:26;0.97;;;0.40;;
74920;SDS011;63483;47.384;8.860;2023-05-10T07:42:52;4.63;;;1.57;;
74920;SDS011;63483;47.384;8.860;2023-05-10T07:45:17;1.50;;;0.70;;
74920;SDS011;63483;47.384;8.860;2023-05-10T07:47:43;1.98;;;1.05;;
74920;SDS011;63483;47.384;8.860;2023-05-10T07:50:08;1.40;;;1.10;;
74920;SDS011;63483;47.384;8.860;2023-05-10T07:52:34;1.35;;;1.00;;
74920;SDS011;63483;47.384;8.860;2023-05-10T07:54:59;1.63;;;0.73;;
74920;SDS011;63483;47.384;8.860;2023-05-10T07:57:24;1.37;;;0.73;;
74920;SDS011;63483;47.384;8.860;2023-05-10T07:59:50;1.60;;;0.90;;
74920;SDS011;63483;47.384;8.860;2023-05-10T08:02:15;2.50;;;1.27;;
74920;SDS011;63483;47.384;8.860;2023-05-10T08:04:40;2.57;;;1.33;;
74920;SDS011;63483;47.384;8.860;2023-05-10T08:07:06;3.15;;;0.93;;
74920;SDS011;63483;47.384;8.860;2023-05-10T08:09:32;1.83;;;0.83;;
74920;SDS011;63483;47.384;8.860;2023-05-10T08:11:57;2.42;;;0.80;;
74920;SDS011;63483;47.384;8.860;2023-05-10T08:14:24;1.60;;;0.90;;
74920;SDS011;63483;47.384;8.860;2023-05-10T08:16:49;2.05;;;0.70;;
74920;SDS011;63483;47.384;8.860;2023-05-10T08:19:15;1.87;;;1.07;;
74920;SDS011;63483;47.384;8.860;2023-05-10T08:21:43;2.33;;;0.63;;
74920;SDS011;63483;47.384;8.860;2023-05-10T08:24:09;2.00;;;0.97;;
74920;SDS011;63483;47.384;8.860;2023-05-10T08:26:34;3.83;;;1.03;;
74920;SDS011;63483;47.384;8.860;2023-05-10T08:29:00;2.57;;;0.83;;
74920;SDS011;63483;47.384;8.860;2023-05-10T08:31:25;3.45;;;1.05;;
74920;SDS011;63483;47.384;8.860;2023-05-10T08:33:51;1.43;;;1.13;;
74920;SDS011;63483;47.384;8.860;2023-05-10T08:36:17;1.85;;;1.23;;
74920;SDS011;63483;47.384;8.860;2023-05-10T08:38:46;2.60;;;1.63;;
74920;SDS011;63483;47.384;8.860;2023-05-10T08:41:12;1.80;;;1.13;;
74920;SDS011;63483;47.384;8.860;2023-05-10T08:43:38;2.85;;;1.00;;
74920;SDS011;63483;47.384;8.860;2023-05-10T08:46:04;2.13;;;0.90;;
74920;SDS011;63483;47.384;8.860;2023-05-10T08:48:30;3.97;;;0.95;;
74920;SDS011;63483;47.384;8.860;2023-05-10T08:50:59;2.83;;;0.70;;
74920;SDS011;63483;47.384;8.860;2023-05-10T08:53:27;1.95;;;0.95;;
74920;SDS011;63483;47.384;8.860;2023-05-10T08:55:54;1.73;;;1.20;;
74920;SDS011;63483;47.384;8.860;2023-05-10T08:58:20;1.87;;;1.10;;
74920;SDS011;63483;47.384;8.860;2023-05-10T09:00:46;2.17;;;0.95;;
74920;SDS011;63483;47.384;8.860;2023-05-10T09:03:15;2.77;;;1.00;;
74920;SDS011;63483;47.384;8.860;2023-05-10T09:05:41;2.15;;;0.80;;
74920;SDS011;63483;47.384;8.860;2023-05-10T09:08:07;2.50;;;0.87;;
74920;SDS011;63483;47.384;8.860;2023-05-10T09:10:33;2.80;;;1.02;;
74920;SDS011;63483;47.384;8.860;2023-05-10T09:12:59;3.38;;;1.23;;
74920;SDS011;63483;47.384;8.860;2023-05-10T09:15:24;2.07;;;1.23;;
74920;SDS011;63483;47.384;8.860;2023-05-10T09:17:50;3.92;;;1.58;;
74920;SDS011;63483;47.384;8.860;2023-05-10T09:20:16;1.83;;;1.30;;
74920;SDS011;63483;47.384;8.860;2023-05-10T09:22:42;2.58;;;1.08;;
74920;SDS011;63483;47.384;8.860;2023-05-10T09:25:09;2.63;;;1.90;;
74920;SDS011;63483;47.384;8.860;2023-05-10T09:27:36;2.47;;;1.02;;
74920;SDS011;63483;47.384;8.860;2023-05-10T09:30:03;2.53;;;1.20;;
74920;SDS011;63483;47.384;8.860;2023-05-10T09:32:40;2.30;;;1.00;;
74920;SDS011;63483;47.384;8.860;2023-05-10T09:35:07;3.57;;;1.13;;
74920;SDS011;63483;47.384;8.860;2023-05-10T09:37:33;2.42;;;1.02;;
74920;SDS011;63483;47.384;8.860;2023-05-10T09:39:58;2.73;;;1.13;;
74920;SDS011;63483;47.384;8.860;2023-05-10T09:42:24;3.42;;;1.05;;
74920;SDS011;63483;47.384;8.860;2023-05-10T09:44:49;3.07;;;1.27;;
74920;SDS011;63483;47.384;8.860;2023-05-10T09:47:17;2.30;;;1.00;;
74920;SDS011;63483;47.384;8.860;2023-05-10T09:49:52;2.65;;;0.93;;
74920;SDS011;63483;47.384;8.860;2023-05-10T09:52:20;4.37;;;2.23;;
74920;SDS011;63483;47.384;8.860;2023-05-10T09:54:52;2.17;;;1.08;;
74920;SDS011;63483;47.384;8.860;2023-05-10T09:57:20;4.13;;;1.53;;
74920;SDS011;63483;47.384;8.860;2023-05-10T09:59:46;2.63;;;1.42;;
74920;SDS011;63483;47.384;8.860;2023-05-10T10:02:12;2.03;;;1.08;;
74920;SDS011;63483;47.384;8.860;2023-05-10T10:04:39;3.05;;;1.00;;
74920;SDS011;63483;47.384;8.860;2023-05-10T10:07:05;3.23;;;1.00;;
74920;SDS011;63483;47.384;8.860;2023-05-10T10:09:32;3.22;;;0.88;;
74920;SDS011;63483;47.384;8.860;2023-05-10T10:11:59;2.55;;;1.52;;
74920;SDS011;63483;47.384;8.860;2023-05-10T10:14:25;2.25;;;1.15;;
74920;SDS011;63483;47.384;8.860;2023-05-10T10:16:51;4.23;;;1.00;;
74920;SDS011;63483;47.384;8.860;2023-05-10T10:19:20;2.70;;;1.70;;
74920;SDS011;63483;47.384;8.860;2023-05-10T10:21:49;1.85;;;1.23;;
74920;SDS011;63483;47.384;8.860;2023-05-10T10:24:15;2.63;;;1.00;;
74920;SDS011;63483;47.384;8.860;2023-05-10T10:26:40;1.77;;;0.90;;
74920;SDS011;63483;47.384;8.860;2023-05-10T10:32:08;3.22;;;1.50;;
74920;SDS011;63483;47.384;8.860;2023-05-10T10:34:42;2.90;;;1.93;;
74920;SDS011;63483;47.384;8.860;2023-05-10T10:37:08;3.22;;;1.20;;
74920;SDS011;63483;47.384;8.860;2023-05-10T10:39:34;2.97;;;1.10;;
74920;SDS011;63483;47.384;8.860;2023-05-10T10:42:01;3.00;;;1.10;;
74920;SDS011;63483;47.384;8.860;2023-05-10T10:44:35;2.58;;;0.77;;
74920;SDS011;63483;47.384;8.860;2023-05-10T10:47:03;3.33;;;1.08;;
74920;SDS011;63483;47.384;8.860;2023-05-10T10:57:33;2.97;;;1.40;;
74920;SDS011;63483;47.384;8.860;2023-05-10T11:03:11;2.75;;;1.17;;
74920;SDS011;63483;47.384;8.860;2023-05-10T11:10:49;3.95;;;1.73;;
74920;SDS011;63483;47.384;8.860;2023-05-10T11:13:17;3.90;;;1.43;;
74920;SDS011;63483;47.384;8.860;2023-05-10T11:15:52;5.65;;;1.38;;
74920;SDS011;63483;47.384;8.860;2023-05-10T11:18:19;3.30;;;1.40;;
74920;SDS011;63483;47.384;8.860;2023-05-10T11:23:29;3.10;;;1.13;;
74920;SDS011;63483;47.384;8.860;2023-05-10T11:25:58;3.57;;;0.80;;
74920;SDS011;63483;47.384;8.860;2023-05-10T11:28:26;3.08;;;1.45;;
74920;SDS011;63483;47.384;8.860;2023-05-10T11:30:53;4.00;;;1.35;;
74920;SDS011;63483;47.384;8.860;2023-05-10T11:33:19;3.55;;;1.45;;
74920;SDS011;63483;47.384;8.860;2023-05-10T11:35:45;3.27;;;1.73;;
74920;SDS011;63483;47.384;8.860;2023-05-10T11:38:11;3.95;;;1.55;;
74920;SDS011;63483;47.384;8.860;2023-05-10T11:40:38;2.75;;;1.48;;
74920;SDS011;63483;47.384;8.860;2023-05-10T11:43:04;3.30;;;1.70;;
74920;SDS011;63483;47.384;8.860;2023-05-10T11:45:34;3.17;;;1.27;;
74920;SDS011;63483;47.384;8.860;2023-05-10T11:48:00;2.00;;;1.35;;
74920;SDS011;63483;47.384;8.860;2023-05-10T11:50:26;4.50;;;1.77;;
74920;SDS011;63483;47.384;8.860;2023-05-10T11:52:55;2.87;;;1.73;;
74920;SDS011;63483;47.384;8.860;2023-05-10T11:55:21;4.00;;;1.80;;
74920;SDS011;63483;47.384;8.860;2023-05-10T11:57:47;2.92;;;1.33;;
74920;SDS011;63483;47.384;8.860;2023-05-10T12:00:12;2.43;;;1.60;;
74920;SDS011;63483;47.384;8.860;2023-05-10T12:02:38;2.80;;;1.23;;
74920;SDS011;63483;47.384;8.860;2023-05-10T12:05:04;3.10;;;1.47;;
74920;SDS011;63483;47.384;8.860;2023-05-10T12:07:31;2.88;;;1.60;;
74920;SDS011;63483;47.384;8.860;2023-05-10T12:12:45;3.35;;;1.95;;
74920;SDS011;63483;47.384;8.860;2023-05-10T12:15:16;4.47;;;1.02;;
74920;SDS011;63483;47.384;8.860;2023-05-10T12:17:44;2.72;;;0.85;;
74920;SDS011;63483;47.384;8.860;2023-05-10T12:20:17;1.53;;;0.73;;
74920;SDS011;63483;47.384;8.860;2023-05-10T12:22:50;2.35;;;1.23;;
74920;SDS011;63483;47.384;8.860;2023-05-10T12:25:17;2.97;;;1.70;;
74920;SDS011;63483;47.384;8.860;2023-05-10T12:27:56;3.65;;;1.13;;
74920;SDS011;63483;47.384;8.860;2023-05-10T12:30:23;2.20;;;1.10;;
74920;SDS011;63483;47.384;8.860;2023-05-10T12:32:50;3.07;;;1.33;;
74920;SDS011;63483;47.384;8.860;2023-05-10T12:35:16;4.22;;;1.45;;
74920;SDS011;63483;47.384;8.860;2023-05-10T12:37:45;2.42;;;1.00;;
74920;SDS011;63483;47.384;8.860;2023-05-10T12:40:11;2.60;;;0.90;;
74920;SDS011;63483;47.384;8.860;2023-05-10T12:42:37;2.83;;;1.08;;
74920;SDS011;63483;47.384;8.860;2023-05-10T12:45:04;2.42;;;1.10;;
74920;SDS011;63483;47.384;8.860;2023-05-10T12:47:30;2.67;;;1.10;;
74920;SDS011;63483;47.384;8.860;2023-05-10T12:49:59;2.67;;;1.10;;
74920;SDS011;63483;47.384;8.860;2023-05-10T12:52:26;3.17;;;0.77;;
74920;SDS011;63483;47.384;8.860;2023-05-10T12:54:52;4.82;;;1.42;;
74920;SDS011;63483;47.384;8.860;2023-05-10T12:57:18;1.77;;;0.93;;
74920;SDS011;63483;47.384;8.860;2023-05-10T12:59:43;2.45;;;1.30;;
74920;SDS011;63483;47.384;8.860;2023-05-10T13:02:09;4.50;;;1.93;;
74920;SDS011;63483;47.384;8.860;2023-05-10T13:04:34;3.28;;;1.20;;
74920;SDS011;63483;47.384;8.860;2023-05-10T13:07:04;2.63;;;1.52;;
74920;SDS011;63483;47.384;8.860;2023-05-10T13:09:29;2.80;;;1.13;;
74920;SDS011;63483;47.384;8.860;2023-05-10T13:11:55;2.43;;;1.50;;
74920;SDS011;63483;47.384;8.860;2023-05-10T13:14:20;2.70;;;1.47;;
74920;SDS011;63483;47.384;8.860;2023-05-10T13:16:46;2.63;;;1.50;;
74920;SDS011;63483;47.384;8.860;2023-05-10T13:19:12;2.60;;;1.58;;
74920;SDS011;63483;47.384;8.860;2023-05-10T13:21:41;3.40;;;2.38;;
74920;SDS011;63483;47.384;8.860;2023-05-10T13:24:06;4.37;;;1.40;;
74920;SDS011;63483;47.384;8.860;2023-05-10T13:26:32;2.95;;;1.23;;
74920;SDS011;63483;47.384;8.860;2023-05-10T13:28:58;3.70;;;1.27;;
74920;SDS011;63483;47.384;8.860;2023-05-10T13:31:23;2.88;;;1.27;;
74920;SDS011;63483;47.384;8.860;2023-05-10T13:33:49;3.67;;;1.30;;
74920;SDS011;63483;47.384;8.860;2023-05-10T13:36:14;2.80;;;1.53;;
74920;SDS011;63483;47.384;8.860;2023-05-10T13:38:39;3.83;;;1.60;;
74920;SDS011;63483;47.384;8.860;2023-05-10T13:41:05;1.87;;;0.87;;
74920;SDS011;63483;47.384;8.860;2023-05-10T13:43:30;2.10;;;1.38;;
74920;SDS011;63483;47.384;8.860;2023-05-10T13:45:55;3.33;;;1.40;;
74920;SDS011;63483;47.384;8.860;2023-05-10T13:48:21;2.63;;;1.27;;
74920;SDS011;63483;47.384;8.860;2023-05-10T13:50:46;2.40;;;1.37;;
74920;SDS011;63483;47.384;8.860;2023-05-10T13:53:12;2.67;;;1.77;;
74920;SDS011;63483;47.384;8.860;2023-05-10T13:55:37;2.70;;;1.42;;
74920;SDS011;63483;47.384;8.860;2023-05-10T13:58:03;2.50;;;1.50;;
74920;SDS011;63483;47.384;8.860;2023-05-10T14:00:28;3.50;;;1.47;;
74920;SDS011;63483;47.384;8.860;2023-05-10T14:02:53;4.13;;;1.23;;
74920;SDS011;63483;47.384;8.860;2023-05-10T14:05:19;3.40;;;1.37;;
74920;SDS011;63483;47.384;8.860;2023-05-10T14:07:45;2.05;;;1.13;;
74920;SDS011;63483;47.384;8.860;2023-05-10T14:10:10;3.23;;;1.00;;
74920;SDS011;63483;47.384;8.860;2023-05-10T14:12:35;4.80;;;1.17;;
74920;SDS011;63483;47.384;8.860;2023-05-10T14:15:01;4.20;;;1.30;;
74920;SDS011;63483;47.384;8.860;2023-05-10T14:17:27;4.00;;;0.97;;
74920;SDS011;63483;47.384;8.860;2023-05-10T14:19:52;3.77;;;0.90;;
74920;SDS011;63483;47.384;8.860;2023-05-10T14:22:18;2.25;;;1.23;;
74920;SDS011;63483;47.384;8.860;2023-05-10T14:24:43;3.70;;;1.17;;
74920;SDS011;63483;47.384;8.860;2023-05-10T14:27:11;2.90;;;0.90;;
74920;SDS011;63483;47.384;8.860;2023-05-10T14:29:37;3.87;;;1.33;;
74920;SDS011;63483;47.384;8.860;2023-05-10T14:32:02;3.90;;;0.85;;
74920;SDS011;63483;47.384;8.860;2023-05-10T14:34:28;2.33;;;1.20;;
74920;SDS011;63483;47.384;8.860;2023-05-10T14:36:53;3.73;;;1.13;;
74920;SDS011;63483;47.384;8.860;2023-05-10T14:39:20;2.72;;;1.45;;
74920;SDS011;63483;47.384;8.860;2023-05-10T14:41:45;2.37;;;0.80;;
74920;SDS011;63483;47.384;8.860;2023-05-10T14:44:12;2.50;;;1.00;;
74920;SDS011;63483;47.384;8.860;2023-05-10T14:46:37;4.00;;;1.23;;
74920;SDS011;63483;47.384;8.860;2023-05-10T14:49:03;2.70;;;1.17;;
74920;SDS011;63483;47.384;8.860;2023-05-10T14:51:28;2.33;;;1.40;;
74920;SDS011;63483;47.384;8.860;2023-05-10T14:53:54;3.17;;;1.00;;
74920;SDS011;63483;47.384;8.860;2023-05-10T14:56:19;1.87;;;1.07;;
74920;SDS011;63483;47.384;8.860;2023-05-10T14:58:46;3.00;;;0.80;;
74920;SDS011;63483;47.384;8.860;2023-05-10T15:01:11;2.73;;;1.00;;
74920;SDS011;63483;47.384;8.860;2023-05-10T15:03:36;2.97;;;1.20;;
74920;SDS011;63483;47.384;8.860;2023-05-10T15:06:02;2.43;;;1.23;;
74920;SDS011;63483;47.384;8.860;2023-05-10T15:08:28;2.92;;;1.10;;
74920;SDS011;63483;47.384;8.860;2023-05-10T15:10:53;2.73;;;1.73;;
74920;SDS011;63483;47.384;8.860;2023-05-10T15:13:20;2.05;;;1.05;;
74920;SDS011;63483;47.384;8.860;2023-05-10T15:15:45;7.07;;;3.27;;
74920;SDS011;63483;47.384;8.860;2023-05-10T15:18:11;5.83;;;2.13;;
74920;SDS011;63483;47.384;8.860;2023-05-10T15:20:36;3.20;;;1.08;;
74920;SDS011;63483;47.384;8.860;2023-05-10T15:23:02;2.03;;;0.83;;
74920;SDS011;63483;47.384;8.860;2023-05-10T15:25:27;2.73;;;1.03;;